sensor_id;sensor_type;location;lat;lon;timestamp;temperature;humidity
68251;DHT22;55066;51.560;4.642;2023-07-24T00:00:38;17.32;99.99
68251;DHT22;55066;51.560;4.642;2023-07-24T00:03:05;17.43;99.99
68251;DHT22;55066;51.560;4.642;2023-07-24T00:05:31;17.46;99.99
68251;DHT22;55066;51.560;4.642;2023-07-24T00:07:56;17.48;99.99
68251;DHT22;55066;51.560;4.642;2023-07-24T00:10:22;17.42;99.99
68251;DHT22;55066;51.560;4.642;2023-07-24T00:12:47;17.29;99.99
68251;DHT22;55066;51.560;4.642;2023-07-24T00:15:13;17.38;99.99
68251;DHT22;55066;51.560;4.642;2023-07-24T00:17:38;17.28;99.99
68251;DHT22;55066;51.560;4.642;2023-07-24T00:20:05;17.34;99.99
68251;DHT22;55066;51.560;4.642;2023-07-24T00:22:31;17.19;99.99
68251;DHT22;55066;51.560;4.642;2023-07-24T00:24:56;17.07;99.99
68251;DHT22;55066;51.560;4.642;2023-07-24T00:27:21;17.15;99.99
68251;DHT22;55066;51.560;4.642;2023-07-24T00:29:47;17.12;99.99
68251;DHT22;55066;51.560;4.642;2023-07-24T00:32:12;17.14;99.99
68251;DHT22;55066;51.560;4.642;2023-07-24T00:34:38;17.14;99.99
68251;DHT22;55066;51.560;4.642;2023-07-24T00:37:03;17.17;99.99
68251;DHT22;55066;51.560;4.642;2023-07-24T00:39:29;17.10;99.99
68251;DHT22;55066;51.560;4.642;2023-07-24T00:41:56;17.10;99.99
68251;DHT22;55066;51.560;4.642;2023-07-24T00:44:21;17.10;99.99
68251;DHT22;55066;51.560;4.642;2023-07-24T00:46:47;17.06;99.99
68251;DHT22;55066;51.560;4.642;2023-07-24T00:49:13;17.08;99.99
68251;DHT22;55066;51.560;4.642;2023-07-24T00:51:39;16.85;99.99
68251;DHT22;55066;51.560;4.642;2023-07-24T00:54:06;16.99;99.99
68251;DHT22;55066;51.560;4.642;2023-07-24T00:56:32;16.88;99.99
68251;DHT22;55066;51.560;4.642;2023-07-24T00:58:59;16.88;99.99
68251;DHT22;55066;51.560;4.642;2023-07-24T01:01:25;16.84;99.99
68251;DHT22;55066;51.560;4.642;2023-07-24T01:03:51;16.99;99.99
68251;DHT22;55066;51.560;4.642;2023-07-24T01:06:16;16.91;99.99
68251;DHT22;55066;51.560;4.642;2023-07-24T01:08:42;16.81;99.99
68251;DHT22;55066;51.560;4.642;2023-07-24T01:11:20;17.24;99.99
68251;DHT22;55066;51.560;4.642;2023-07-24T01:14:23;17.15;99.99
68251;DHT22;55066;51.560;4.642;2023-07-24T01:16:50;17.07;99.99
68251;DHT22;55066;51.560;4.642;2023-07-24T01:19:42;16.99;99.99
68251;DHT22;55066;51.560;4.642;2023-07-24T01:22:16;17.08;99.99
68251;DHT22;55066;51.560;4.642;2023-07-24T01:27:28;17.04;99.99
68251;DHT22;55066;51.560;4.642;2023-07-24T01:29:53;16.99;99.99
68251;DHT22;55066;51.560;4.642;2023-07-24T01:32:19;17.21;99.99
68251;DHT22;55066;51.560;4.642;2023-07-24T01:34:46;17.17;99.99
68251;DHT22;55066;51.560;4.642;2023-07-24T01:37:13;17.21;99.99
68251;DHT22;55066;51.560;4.642;2023-07-24T01:39:43;17.11;99.99
68251;DHT22;55066;51.560;4.642;2023-07-24T01:42:10;17.19;99.99
68251;DHT22;55066;51.560;4.642;2023-07-24T01:44:35;17.18;99.99
68251;DHT22;55066;51.560;4.642;2023-07-24T01:47:01;17.14;99.99
68251;DHT22;55066;51.560;4.642;2023-07-24T01:49:28;17.18;99.99
68251;DHT22;55066;51.560;4.642;2023-07-24T01:51:53;17.03;99.99
68251;DHT22;55066;51.560;4.642;2023-07-24T01:54:18;17.00;99.99
68251;DHT22;55066;51.560;4.642;2023-07-24T01:56:44;17.19;99.99
68251;DHT22;55066;51.560;4.642;2023-07-24T01:59:09;17.18;99.99
68251;DHT22;55066;51.560;4.642;2023-07-24T02:01:35;17.08;99.99
68251;DHT22;55066;51.560;4.642;2023-07-24T02:04:01;17.15;99.99
68251;DHT22;55066;51.560;4.642;2023-07-24T02:06:27;16.99;99.99
68251;DHT22;55066;51.560;4.642;2023-07-24T02:08:52;17.17;99.99
68251;DHT22;55066;51.560;4.642;2023-07-24T02:11:18;17.04;99.99
68251;DHT22;55066;51.560;4.642;2023-07-24T02:13:44;17.11;99.69
68251;DHT22;55066;51.560;4.642;2023-07-24T02:16:10;17.34;99.99
68251;DHT22;55066;51.560;4.642;2023-07-24T02:18:37;17.17;99.99
68251;DHT22;55066;51.560;4.642;2023-07-24T02:21:02;17.21;99.99
68251;DHT22;55066;51.560;4.642;2023-07-24T02:23:27;17.00;99.99
68251;DHT22;55066;51.560;4.642;2023-07-24T02:25:54;17.17;99.99
68251;DHT22;55066;51.560;4.642;2023-07-24T02:28:20;17.19;99.99
68251;DHT22;55066;51.560;4.642;2023-07-24T02:30:49;17.17;99.99
68251;DHT22;55066;51.560;4.642;2023-07-24T02:33:16;17.03;99.99
68251;DHT22;55066;51.560;4.642;2023-07-24T02:35:42;17.21;99.99
68251;DHT22;55066;51.560;4.642;2023-07-24T02:38:08;17.10;99.99
68251;DHT22;55066;51.560;4.642;2023-07-24T02:40:35;17.27;99.99
68251;DHT22;55066;51.560;4.642;2023-07-24T02:43:00;17.04;99.99
68251;DHT22;55066;51.560;4.642;2023-07-24T02:45:26;17.00;99.99
68251;DHT22;55066;51.560;4.642;2023-07-24T02:47:51;16.91;99.99
68251;DHT22;55066;51.560;4.642;2023-07-24T02:50:16;17.10;99.99
68251;DHT22;55066;51.560;4.642;2023-07-24T02:52:42;16.87;99.99
68251;DHT22;55066;51.560;4.642;2023-07-24T02:55:07;16.99;99.99
68251;DHT22;55066;51.560;4.642;2023-07-24T02:57:33;16.91;99.99
68251;DHT22;55066;51.560;4.642;2023-07-24T02:59:58;17.08;99.99
68251;DHT22;55066;51.560;4.642;2023-07-24T03:02:24;16.95;99.99
68251;DHT22;55066;51.560;4.642;2023-07-24T03:04:49;16.87;99.99
68251;DHT22;55066;51.560;4.642;2023-07-24T03:07:15;16.77;99.99
68251;DHT22;55066;51.560;4.642;2023-07-24T03:09:40;16.77;99.99
68251;DHT22;55066;51.560;4.642;2023-07-24T03:12:06;16.77;99.99
68251;DHT22;55066;51.560;4.642;2023-07-24T03:14:31;16.66;99.99
68251;DHT22;55066;51.560;4.642;2023-07-24T03:16:58;16.70;99.99
68251;DHT22;55066;51.560;4.642;2023-07-24T03:19:24;16.56;99.99
68251;DHT22;55066;51.560;4.642;2023-07-24T03:21:49;16.45;99.99
68251;DHT22;55066;51.560;4.642;2023-07-24T03:24:16;16.48;99.99
68251;DHT22;55066;51.560;4.642;2023-07-24T03:26:42;16.46;99.99
68251;DHT22;55066;51.560;4.642;2023-07-24T03:29:08;16.14;99.99
68251;DHT22;55066;51.560;4.642;2023-07-24T03:31:33;16.26;99.99
68251;DHT22;55066;51.560;4.642;2023-07-24T03:33:59;16.36;99.99
68251;DHT22;55066;51.560;4.642;2023-07-24T03:36:25;16.29;99.99
68251;DHT22;55066;51.560;4.642;2023-07-24T03:38:50;16.25;99.99
68251;DHT22;55066;51.560;4.642;2023-07-24T03:41:17;16.30;99.99
68251;DHT22;55066;51.560;4.642;2023-07-24T03:43:42;16.36;99.99
68251;DHT22;55066;51.560;4.642;2023-07-24T03:46:07;16.39;99.99
68251;DHT22;55066;51.560;4.642;2023-07-24T03:48:33;16.42;99.99
68251;DHT22;55066;51.560;4.642;2023-07-24T03:51:00;16.46;99.99
68251;DHT22;55066;51.560;4.642;2023-07-24T03:53:26;16.53;99.99
68251;DHT22;55066;51.560;4.642;2023-07-24T03:55:52;16.43;99.99
68251;DHT22;55066;51.560;4.642;2023-07-24T03:58:17;16.46;99.99
68251;DHT22;55066;51.560;4.642;2023-07-24T04:00:43;16.53;99.99
68251;DHT22;55066;51.560;4.642;2023-07-24T04:03:09;16.24;99.99
68251;DHT22;55066;51.560;4.642;2023-07-24T04:05:35;16.45;99.99
68251;DHT22;55066;51.560;4.642;2023-07-24T04:08:00;16.56;99.99
68251;DHT22;55066;51.560;4.642;2023-07-24T04:10:26;16.41;99.99
68251;DHT22;55066;51.560;4.642;2023-07-24T04:12:51;16.35;99.99
68251;DHT22;55066;51.560;4.642;2023-07-24T04:15:17;16.33;99.99
68251;DHT22;55066;51.560;4.642;2023-07-24T04:17:43;16.26;99.99
68251;DHT22;55066;51.560;4.642;2023-07-24T04:20:08;16.29;99.99
68251;DHT22;55066;51.560;4.642;2023-07-24T04:22:34;16.25;99.99
68251;DHT22;55066;51.560;4.642;2023-07-24T04:25:00;16.25;99.99
68251;DHT22;55066;51.560;4.642;2023-07-24T04:27:25;16.22;99.99
68251;DHT22;55066;51.560;4.642;2023-07-24T04:29:50;16.19;99.99
68251;DHT22;55066;51.560;4.642;2023-07-24T04:32:16;16.38;99.99
68251;DHT22;55066;51.560;4.642;2023-07-24T04:34:41;16.38;99.99
68251;DHT22;55066;51.560;4.642;2023-07-24T04:37:07;16.32;99.99
68251;DHT22;55066;51.560;4.642;2023-07-24T04:39:32;16.24;99.99
68251;DHT22;55066;51.560;4.642;2023-07-24T04:41:59;16.17;99.99
68251;DHT22;55066;51.560;4.642;2023-07-24T04:44:24;16.21;99.99
68251;DHT22;55066;51.560;4.642;2023-07-24T04:46:50;16.32;99.99
68251;DHT22;55066;51.560;4.642;2023-07-24T04:49:16;16.33;99.99
68251;DHT22;55066;51.560;4.642;2023-07-24T04:51:41;16.38;99.99
68251;DHT22;55066;51.560;4.642;2023-07-24T04:54:06;16.38;99.99
68251;DHT22;55066;51.560;4.642;2023-07-24T04:56:32;16.26;99.99
68251;DHT22;55066;51.560;4.642;2023-07-24T04:58:58;16.36;99.99
68251;DHT22;55066;51.560;4.642;2023-07-24T05:01:23;16.39;99.99
68251;DHT22;55066;51.560;4.642;2023-07-24T05:03:48;16.38;99.99
68251;DHT22;55066;51.560;4.642;2023-07-24T05:06:14;16.48;99.99
68251;DHT22;55066;51.560;4.642;2023-07-24T05:08:39;16.55;99.99
68251;DHT22;55066;51.560;4.642;2023-07-24T05:11:05;16.42;99.99
68251;DHT22;55066;51.560;4.642;2023-07-24T05:13:30;16.45;99.99
68251;DHT22;55066;51.560;4.642;2023-07-24T05:15:56;16.55;99.99
68251;DHT22;55066;51.560;4.642;2023-07-24T05:18:21;16.43;99.99
68251;DHT22;55066;51.560;4.642;2023-07-24T05:20:48;16.48;99.99
68251;DHT22;55066;51.560;4.642;2023-07-24T05:23:14;16.26;99.71
68251;DHT22;55066;51.560;4.642;2023-07-24T05:25:40;16.53;99.99
68251;DHT22;55066;51.560;4.642;2023-07-24T05:28:06;16.70;99.99
68251;DHT22;55066;51.560;4.642;2023-07-24T05:30:32;16.88;99.99
68251;DHT22;55066;51.560;4.642;2023-07-24T05:32:58;17.00;99.99
68251;DHT22;55066;51.560;4.642;2023-07-24T05:35:23;16.94;99.99
68251;DHT22;55066;51.560;4.642;2023-07-24T05:37:49;16.87;99.99
68251;DHT22;55066;51.560;4.642;2023-07-24T05:40:14;16.83;99.99
68251;DHT22;55066;51.560;4.642;2023-07-24T05:42:40;16.90;99.99
68251;DHT22;55066;51.560;4.642;2023-07-24T05:45:09;16.99;99.99
68251;DHT22;55066;51.560;4.642;2023-07-24T05:47:35;16.88;99.99
68251;DHT22;55066;51.560;4.642;2023-07-24T05:50:00;17.01;99.99
68251;DHT22;55066;51.560;4.642;2023-07-24T05:52:25;17.12;99.99
68251;DHT22;55066;51.560;4.642;2023-07-24T05:54:51;17.27;99.99
68251;DHT22;55066;51.560;4.642;2023-07-24T05:57:16;17.29;99.99
68251;DHT22;55066;51.560;4.642;2023-07-24T05:59:42;17.42;99.99
68251;DHT22;55066;51.560;4.642;2023-07-24T06:02:07;17.48;99.99
68251;DHT22;55066;51.560;4.642;2023-07-24T06:04:34;17.39;99.99
68251;DHT22;55066;51.560;4.642;2023-07-24T06:06:59;17.31;99.99
68251;DHT22;55066;51.560;4.642;2023-07-24T06:09:25;17.28;99.99
68251;DHT22;55066;51.560;4.642;2023-07-24T06:11:50;17.15;99.99
68251;DHT22;55066;51.560;4.642;2023-07-24T06:14:16;17.29;99.99
68251;DHT22;55066;51.560;4.642;2023-07-24T06:16:41;17.36;99.99
68251;DHT22;55066;51.560;4.642;2023-07-24T06:19:06;17.45;99.99
68251;DHT22;55066;51.560;4.642;2023-07-24T06:21:32;17.45;99.99
68251;DHT22;55066;51.560;4.642;2023-07-24T06:23:57;17.38;99.99
68251;DHT22;55066;51.560;4.642;2023-07-24T06:26:23;17.56;99.99
68251;DHT22;55066;51.560;4.642;2023-07-24T06:28:48;17.63;99.99
68251;DHT22;55066;51.560;4.642;2023-07-24T06:31:14;17.55;99.99
68251;DHT22;55066;51.560;4.642;2023-07-24T06:33:40;17.34;99.99
68251;DHT22;55066;51.560;4.642;2023-07-24T06:36:09;17.27;99.99
68251;DHT22;55066;51.560;4.642;2023-07-24T06:38:35;17.34;99.99
68251;DHT22;55066;51.560;4.642;2023-07-24T06:41:01;17.32;99.99
68251;DHT22;55066;51.560;4.642;2023-07-24T06:43:26;17.19;99.99
68251;DHT22;55066;51.560;4.642;2023-07-24T06:45:53;17.27;99.99
68251;DHT22;55066;51.560;4.642;2023-07-24T06:48:18;17.31;99.99
68251;DHT22;55066;51.560;4.642;2023-07-24T06:50:43;17.53;99.99
68251;DHT22;55066;51.560;4.642;2023-07-24T06:53:09;17.56;99.99
68251;DHT22;55066;51.560;4.642;2023-07-24T06:55:34;17.63;99.99
68251;DHT22;55066;51.560;4.642;2023-07-24T06:58:00;17.73;99.99
68251;DHT22;55066;51.560;4.642;2023-07-24T07:00:25;17.79;99.99
68251;DHT22;55066;51.560;4.642;2023-07-24T07:02:51;17.94;99.99
68251;DHT22;55066;51.560;4.642;2023-07-24T07:05:16;18.17;99.99
68251;DHT22;55066;51.560;4.642;2023-07-24T07:07:41;18.32;99.99
68251;DHT22;55066;51.560;4.642;2023-07-24T07:10:07;18.48;99.99
68251;DHT22;55066;51.560;4.642;2023-07-24T07:12:33;18.45;99.86
68251;DHT22;55066;51.560;4.642;2023-07-24T07:14:58;18.95;99.99
68251;DHT22;55066;51.560;4.642;2023-07-24T07:17:24;19.30;99.99
68251;DHT22;55066;51.560;4.642;2023-07-24T07:19:49;19.00;99.98
68251;DHT22;55066;51.560;4.642;2023-07-24T07:22:14;18.76;99.53
68251;DHT22;55066;51.560;4.642;2023-07-24T07:24:40;18.72;99.99
68251;DHT22;55066;51.560;4.642;2023-07-24T07:27:05;18.59;99.99
68251;DHT22;55066;51.560;4.642;2023-07-24T07:29:31;18.62;99.99
68251;DHT22;55066;51.560;4.642;2023-07-24T07:31:57;18.99;99.32
68251;DHT22;55066;51.560;4.642;2023-07-24T07:34:22;19.10;99.99
68251;DHT22;55066;51.560;4.642;2023-07-24T07:36:47;19.11;98.02
68251;DHT22;55066;51.560;4.642;2023-07-24T07:39:13;19.23;98.20
68251;DHT22;55066;51.560;4.642;2023-07-24T07:41:38;19.15;98.03
68251;DHT22;55066;51.560;4.642;2023-07-24T07:44:04;19.32;97.78
68251;DHT22;55066;51.560;4.642;2023-07-24T07:46:30;19.52;96.58
68251;DHT22;55066;51.560;4.642;2023-07-24T07:48:55;19.63;96.52
68251;DHT22;55066;51.560;4.642;2023-07-24T07:51:22;20.01;95.88
68251;DHT22;55066;51.560;4.642;2023-07-24T07:53:50;20.03;93.78
68251;DHT22;55066;51.560;4.642;2023-07-24T07:56:16;20.16;94.37
68251;DHT22;55066;51.560;4.642;2023-07-24T07:58:41;20.44;92.82
68251;DHT22;55066;51.560;4.642;2023-07-24T08:01:07;20.49;92.92
68251;DHT22;55066;51.560;4.642;2023-07-24T08:03:32;20.51;93.26
68251;DHT22;55066;51.560;4.642;2023-07-24T08:05:58;21.04;91.55
68251;DHT22;55066;51.560;4.642;2023-07-24T08:08:24;21.23;91.44
68251;DHT22;55066;51.560;4.642;2023-07-24T08:10:49;21.24;92.66
68251;DHT22;55066;51.560;4.642;2023-07-24T08:13:15;20.86;92.63
68251;DHT22;55066;51.560;4.642;2023-07-24T08:15:40;20.73;93.96
68251;DHT22;55066;51.560;4.642;2023-07-24T08:18:06;20.51;93.81
68251;DHT22;55066;51.560;4.642;2023-07-24T08:20:35;19.85;96.78
68251;DHT22;55066;51.560;4.642;2023-07-24T08:23:01;19.27;98.64
68251;DHT22;55066;51.560;4.642;2023-07-24T08:25:26;18.65;99.99
68251;DHT22;55066;51.560;4.642;2023-07-24T08:27:51;18.38;99.99
68251;DHT22;55066;51.560;4.642;2023-07-24T08:30:18;18.05;99.99
68251;DHT22;55066;51.560;4.642;2023-07-24T08:32:43;17.77;99.99
68251;DHT22;55066;51.560;4.642;2023-07-24T08:35:09;17.70;99.99
68251;DHT22;55066;51.560;4.642;2023-07-24T08:37:34;17.61;99.99
68251;DHT22;55066;51.560;4.642;2023-07-24T08:40:00;17.53;99.99
68251;DHT22;55066;51.560;4.642;2023-07-24T08:42:26;17.48;99.99
68251;DHT22;55066;51.560;4.642;2023-07-24T08:44:52;17.27;99.99
68251;DHT22;55066;51.560;4.642;2023-07-24T08:47:19;17.17;99.99
68251;DHT22;55066;51.560;4.642;2023-07-24T08:49:46;17.31;99.99
68251;DHT22;55066;51.560;4.642;2023-07-24T08:52:12;17.55;99.99
68251;DHT22;55066;51.560;4.642;2023-07-24T08:54:38;17.84;99.99
68251;DHT22;55066;51.560;4.642;2023-07-24T08:57:07;18.11;99.99
68251;DHT22;55066;51.560;4.642;2023-07-24T08:59:33;18.31;99.99
68251;DHT22;55066;51.560;4.642;2023-07-24T09:01:59;18.38;99.99
68251;DHT22;55066;51.560;4.642;2023-07-24T09:04:25;18.35;99.99
68251;DHT22;55066;51.560;4.642;2023-07-24T09:06:50;18.73;99.99
68251;DHT22;55066;51.560;4.642;2023-07-24T09:09:16;19.08;99.99
68251;DHT22;55066;51.560;4.642;2023-07-24T09:11:49;19.52;99.99
68251;DHT22;55066;51.560;4.642;2023-07-24T09:14:24;19.61;99.99
68251;DHT22;55066;51.560;4.642;2023-07-24T09:17:11;19.04;99.99
68251;DHT22;55066;51.560;4.642;2023-07-24T09:19:38;18.51;99.99
68251;DHT22;55066;51.560;4.642;2023-07-24T09:22:11;18.51;99.99
68251;DHT22;55066;51.560;4.642;2023-07-24T09:24:38;18.72;99.99
68251;DHT22;55066;51.560;4.642;2023-07-24T09:27:06;18.92;99.99
68251;DHT22;55066;51.560;4.642;2023-07-24T09:29:33;19.13;99.99
68251;DHT22;55066;51.560;4.642;2023-07-24T09:31:59;19.32;99.99
68251;DHT22;55066;51.560;4.642;2023-07-24T09:34:25;19.66;99.99
68251;DHT22;55066;51.560;4.642;2023-07-24T09:36:53;19.85;99.99
68251;DHT22;55066;51.560;4.642;2023-07-24T09:39:24;19.75;99.99
68251;DHT22;55066;51.560;4.642;2023-07-24T09:41:50;20.05;99.99
68251;DHT22;55066;51.560;4.642;2023-07-24T09:44:16;19.92;99.99
68251;DHT22;55066;51.560;4.642;2023-07-24T09:46:43;19.92;99.99
68251;DHT22;55066;51.560;4.642;2023-07-24T09:49:09;19.94;99.99
68251;DHT22;55066;51.560;4.642;2023-07-24T09:51:35;20.05;99.99
68251;DHT22;55066;51.560;4.642;2023-07-24T09:54:12;20.38;99.99
68251;DHT22;55066;51.560;4.642;2023-07-24T09:56:40;20.64;99.99
68251;DHT22;55066;51.560;4.642;2023-07-24T09:59:07;20.89;99.99
68251;DHT22;55066;51.560;4.642;2023-07-24T10:01:34;21.02;99.99
68251;DHT22;55066;51.560;4.642;2023-07-24T10:04:00;20.69;99.31
68251;DHT22;55066;51.560;4.642;2023-07-24T10:06:27;20.58;97.02
68251;DHT22;55066;51.560;4.642;2023-07-24T10:08:54;20.44;98.77
68251;DHT22;55066;51.560;4.642;2023-07-24T10:11:20;20.51;98.84
68251;DHT22;55066;51.560;4.642;2023-07-24T10:13:47;20.68;99.12
68251;DHT22;55066;51.560;4.642;2023-07-24T10:16:13;20.59;98.31
68251;DHT22;55066;51.560;4.642;2023-07-24T10:18:45;20.79;99.70
68251;DHT22;55066;51.560;4.642;2023-07-24T10:21:12;21.03;96.80
68251;DHT22;55066;51.560;4.642;2023-07-24T10:23:45;21.53;93.09
68251;DHT22;55066;51.560;4.642;2023-07-24T10:26:12;21.46;95.11
68251;DHT22;55066;51.560;4.642;2023-07-24T10:28:39;21.55;94.95
68251;DHT22;55066;51.560;4.642;2023-07-24T10:31:06;22.01;95.02
68251;DHT22;55066;51.560;4.642;2023-07-24T10:33:35;22.75;93.45
68251;DHT22;55066;51.560;4.642;2023-07-24T10:36:09;22.87;90.99
68251;DHT22;55066;51.560;4.642;2023-07-24T10:38:42;22.83;89.53
68251;DHT22;55066;51.560;4.642;2023-07-24T10:41:10;22.87;89.26
68251;DHT22;55066;51.560;4.642;2023-07-24T10:43:42;22.51;89.53
68251;DHT22;55066;51.560;4.642;2023-07-24T10:46:08;22.84;88.98
68251;DHT22;55066;51.560;4.642;2023-07-24T10:48:34;23.49;86.90
68251;DHT22;55066;51.560;4.642;2023-07-24T10:51:06;23.85;86.82
68251;DHT22;55066;51.560;4.642;2023-07-24T10:53:34;23.91;85.30
68251;DHT22;55066;51.560;4.642;2023-07-24T10:56:00;23.93;85.56
68251;DHT22;55066;51.560;4.642;2023-07-24T10:58:26;24.29;84.70
68251;DHT22;55066;51.560;4.642;2023-07-24T11:00:52;24.56;82.01
68251;DHT22;55066;51.560;4.642;2023-07-24T11:03:18;23.75;83.61
68251;DHT22;55066;51.560;4.642;2023-07-24T11:05:45;24.32;83.33
68251;DHT22;55066;51.560;4.642;2023-07-24T11:08:16;24.72;83.00
68251;DHT22;55066;51.560;4.642;2023-07-24T11:10:52;24.60;83.01
68251;DHT22;55066;51.560;4.642;2023-07-24T11:13:23;24.35;81.66
68251;DHT22;55066;51.560;4.642;2023-07-24T11:15:49;24.97;83.27
68251;DHT22;55066;51.560;4.642;2023-07-24T11:18:15;25.48;82.66
68251;DHT22;55066;51.560;4.642;2023-07-24T11:20:45;25.17;81.86
68251;DHT22;55066;51.560;4.642;2023-07-24T11:23:11;25.21;82.47
68251;DHT22;55066;51.560;4.642;2023-07-24T11:25:38;25.03;80.81
68251;DHT22;55066;51.560;4.642;2023-07-24T11:28:11;24.79;81.60
68251;DHT22;55066;51.560;4.642;2023-07-24T11:30:37;24.87;81.80
68251;DHT22;55066;51.560;4.642;2023-07-24T11:33:05;25.14;80.99
68251;DHT22;55066;51.560;4.642;2023-07-24T11:35:31;25.04;80.24
68251;DHT22;55066;51.560;4.642;2023-07-24T11:37:57;25.19;81.56
68251;DHT22;55066;51.560;4.642;2023-07-24T11:40:53;25.49;80.44
68251;DHT22;55066;51.560;4.642;2023-07-24T11:43:21;25.61;80.95
68251;DHT22;55066;51.560;4.642;2023-07-24T11:45:47;25.32;81.07
68251;DHT22;55066;51.560;4.642;2023-07-24T11:48:23;25.28;79.39
68251;DHT22;55066;51.560;4.642;2023-07-24T11:50:51;25.04;80.09
68251;DHT22;55066;51.560;4.642;2023-07-24T11:53:22;24.28;81.53
68251;DHT22;55066;51.560;4.642;2023-07-24T11:55:48;24.37;83.22
68251;DHT22;55066;51.560;4.642;2023-07-24T11:58:15;24.43;83.83
68251;DHT22;55066;51.560;4.642;2023-07-24T12:00:41;24.57;80.81
68251;DHT22;55066;51.560;4.642;2023-07-24T12:03:07;24.90;79.19
68251;DHT22;55066;51.560;4.642;2023-07-24T12:05:43;25.03;80.14
68251;DHT22;55066;51.560;4.642;2023-07-24T12:08:10;25.49;78.14
68251;DHT22;55066;51.560;4.642;2023-07-24T12:10:37;25.92;77.52
68251;DHT22;55066;51.560;4.642;2023-07-24T12:13:02;26.35;78.21
68251;DHT22;55066;51.560;4.642;2023-07-24T12:15:28;26.20;78.24
68251;DHT22;55066;51.560;4.642;2023-07-24T12:17:54;25.27;78.25
68251;DHT22;55066;51.560;4.642;2023-07-24T12:20:19;24.74;81.65
68251;DHT22;55066;51.560;4.642;2023-07-24T12:22:45;24.19;81.27
68251;DHT22;55066;51.560;4.642;2023-07-24T12:25:11;24.19;82.55
68251;DHT22;55066;51.560;4.642;2023-07-24T12:27:37;24.90;83.74
68251;DHT22;55066;51.560;4.642;2023-07-24T12:30:05;25.10;80.43
68251;DHT22;55066;51.560;4.642;2023-07-24T12:32:31;24.18;78.42
68251;DHT22;55066;51.560;4.642;2023-07-24T12:34:57;23.85;81.81
68251;DHT22;55066;51.560;4.642;2023-07-24T12:37:22;23.84;81.29
68251;DHT22;55066;51.560;4.642;2023-07-24T12:39:48;23.98;78.93
68251;DHT22;55066;51.560;4.642;2023-07-24T12:42:14;24.24;78.73
68251;DHT22;55066;51.560;4.642;2023-07-24T12:44:41;24.66;80.74
68251;DHT22;55066;51.560;4.642;2023-07-24T12:47:06;24.30;78.09
68251;DHT22;55066;51.560;4.642;2023-07-24T12:49:32;24.84;81.37
68251;DHT22;55066;51.560;4.642;2023-07-24T12:51:57;24.86;79.55
68251;DHT22;55066;51.560;4.642;2023-07-24T12:54:23;24.35;79.66
68251;DHT22;55066;51.560;4.642;2023-07-24T12:56:49;24.88;81.87
68251;DHT22;55066;51.560;4.642;2023-07-24T12:59:15;24.77;77.88
68251;DHT22;55066;51.560;4.642;2023-07-24T13:01:41;24.73;78.86
68251;DHT22;55066;51.560;4.642;2023-07-24T13:04:07;24.79;80.87
68251;DHT22;55066;51.560;4.642;2023-07-24T13:06:33;24.37;78.46
68251;DHT22;55066;51.560;4.642;2023-07-24T13:08:58;24.29;81.37
68251;DHT22;55066;51.560;4.642;2023-07-24T13:11:24;24.56;79.90
68251;DHT22;55066;51.560;4.642;2023-07-24T13:13:49;24.74;76.37
68251;DHT22;55066;51.560;4.642;2023-07-24T13:16:16;25.07;78.57
68251;DHT22;55066;51.560;4.642;2023-07-24T13:18:42;25.55;77.62
68251;DHT22;55066;51.560;4.642;2023-07-24T13:21:08;26.42;73.36
68251;DHT22;55066;51.560;4.642;2023-07-24T13:23:34;26.31;73.67
68251;DHT22;55066;51.560;4.642;2023-07-24T13:25:59;26.01;73.16
68251;DHT22;55066;51.560;4.642;2023-07-24T13:28:25;26.42;75.50
68251;DHT22;55066;51.560;4.642;2023-07-24T13:30:50;25.80;74.08
68251;DHT22;55066;51.560;4.642;2023-07-24T13:33:16;26.22;75.12
68251;DHT22;55066;51.560;4.642;2023-07-24T13:35:41;26.56;73.03
68251;DHT22;55066;51.560;4.642;2023-07-24T13:38:07;25.72;76.50
68251;DHT22;55066;51.560;4.642;2023-07-24T13:40:36;25.63;75.86
68251;DHT22;55066;51.560;4.642;2023-07-24T13:43:01;25.28;76.13
68251;DHT22;55066;51.560;4.642;2023-07-24T13:45:28;24.74;75.53
68251;DHT22;55066;51.560;4.642;2023-07-24T13:47:54;25.24;75.52
68251;DHT22;55066;51.560;4.642;2023-07-24T13:50:20;26.27;78.31
68251;DHT22;55066;51.560;4.642;2023-07-24T13:52:45;26.59;74.24
68251;DHT22;55066;51.560;4.642;2023-07-24T13:55:10;26.71;77.13
68251;DHT22;55066;51.560;4.642;2023-07-24T13:57:36;25.94;74.13
68251;DHT22;55066;51.560;4.642;2023-07-24T14:00:02;25.53;77.13
68251;DHT22;55066;51.560;4.642;2023-07-24T14:02:37;25.34;77.94
68251;DHT22;55066;51.560;4.642;2023-07-24T14:05:03;25.53;75.36
68251;DHT22;55066;51.560;4.642;2023-07-24T14:07:28;26.03;77.27
68251;DHT22;55066;51.560;4.642;2023-07-24T14:09:54;25.59;78.22
68251;DHT22;55066;51.560;4.642;2023-07-24T14:12:19;24.22;77.86
68251;DHT22;55066;51.560;4.642;2023-07-24T14:14:44;24.29;80.94
68251;DHT22;55066;51.560;4.642;2023-07-24T14:17:11;24.16;80.60
68251;DHT22;55066;51.560;4.642;2023-07-24T14:19:37;23.50;83.61
68251;DHT22;55066;51.560;4.642;2023-07-24T14:22:02;22.72;84.18
68251;DHT22;55066;51.560;4.642;2023-07-24T14:24:28;22.98;82.63
68251;DHT22;55066;51.560;4.642;2023-07-24T14:26:53;23.08;85.22
68251;DHT22;55066;51.560;4.642;2023-07-24T14:29:19;23.53;83.00
68251;DHT22;55066;51.560;4.642;2023-07-24T14:31:44;23.52;83.22
68251;DHT22;55066;51.560;4.642;2023-07-24T14:34:10;23.32;82.88
68251;DHT22;55066;51.560;4.642;2023-07-24T14:36:38;22.98;84.49
68251;DHT22;55066;51.560;4.642;2023-07-24T14:39:04;23.42;82.35
68251;DHT22;55066;51.560;4.642;2023-07-24T14:41:29;22.39;84.64
68251;DHT22;55066;51.560;4.642;2023-07-24T14:43:55;23.52;82.91
68251;DHT22;55066;51.560;4.642;2023-07-24T14:46:20;23.64;82.47
68251;DHT22;55066;51.560;4.642;2023-07-24T14:48:46;23.34;82.19
68251;DHT22;55066;51.560;4.642;2023-07-24T14:51:11;23.11;81.37
68251;DHT22;55066;51.560;4.642;2023-07-24T14:53:37;24.32;79.49
68251;DHT22;55066;51.560;4.642;2023-07-24T14:56:03;24.72;78.41
68251;DHT22;55066;51.560;4.642;2023-07-24T14:58:29;24.55;79.18
68251;DHT22;55066;51.560;4.642;2023-07-24T15:00:54;23.87;80.69
68251;DHT22;55066;51.560;4.642;2023-07-24T15:03:20;24.15;80.28
68251;DHT22;55066;51.560;4.642;2023-07-24T15:05:46;23.43;81.57
68251;DHT22;55066;51.560;4.642;2023-07-24T15:08:11;23.40;81.33
68251;DHT22;55066;51.560;4.642;2023-07-24T15:10:37;22.90;82.37
68251;DHT22;55066;51.560;4.642;2023-07-24T15:13:02;22.98;82.72
68251;DHT22;55066;51.560;4.642;2023-07-24T15:15:27;23.57;82.12
68251;DHT22;55066;51.560;4.642;2023-07-24T15:17:53;23.25;82.31
68251;DHT22;55066;51.560;4.642;2023-07-24T15:20:18;23.14;82.58
68251;DHT22;55066;51.560;4.642;2023-07-24T15:22:44;22.88;83.11
68251;DHT22;55066;51.560;4.642;2023-07-24T15:25:09;23.11;81.64
68251;DHT22;55066;51.560;4.642;2023-07-24T15:27:35;22.69;81.29